Accueil
METAR-TAF:

METAR-TAF

Aéroports :

Bauru, São Paulo, Brésil

latitude: 22-19S, longitude: 049-04W, altitude: 590 m

Observation

Le bulletin a été fait il y a 4 heures et 3 minutes, à 22:00 UTC
Vent 4 kt de sud
Température 30°C
Humidité 55%
Pression 1005 hPa
Visibilité 10 km ou plus
pas de nuages en-dessous de 1500 mètres et pas de cumulonimbus.

METAR: SBBU 102200Z 17004KT CAVOK 30/20 Q1005

Heure: 00:03 (02:03 UTC)

Prévision

Le bulletin a été fait il y a 4 heures et 3 minutes, à 22:00 UTC
Prévision valable du 11 à 00 UTC au 11 à 12 UTC
Vent 6 kt de ouest/sud-ouest
Visibilité 10 km ou plus
Quelques nuages à une hauteur de 3000 ft

TAF: SBBU 102200Z 1100/1112 24006KT 9999 FEW030 TX27/1100Z TN23/1108Z RMK PEB

Observations et prévisions météorologiques de plus de 4000 aéroports (messages METAR et TAF).

Les stations disponibles sont représentées par des disques jaunes et rouges sur la carte.

Passer la souris dessus pour voir le nom de la station.

Cliquer dessus pour voir les observations et prévisions météorologiques.

Pour changer de carte: cliquez sur les boutons verts avec une croix noire pour zoomer, sur le bouton vert avec un tiret pour effectuer un zoom arrière, ou sur les flèches vertes pour les cartes adjacentes.


METAR-TAF: